sensor_id;sensor_type;location;lat;lon;timestamp;pressure;altitude;pressure_sealevel;temperature;humidity
41706;BME280;27385;51.096;17.190;2024-01-30T00:00:58;101895.73;;;1.43;81.42
41706;BME280;27385;51.096;17.190;2024-01-30T00:03:52;101899.90;;;1.42;81.54
41706;BME280;27385;51.096;17.190;2024-01-30T00:06:43;101899.95;;;1.41;81.59
41706;BME280;27385;51.096;17.190;2024-01-30T00:09:35;101899.47;;;1.38;81.45
41706;BME280;27385;51.096;17.190;2024-01-30T00:12:26;101904.23;;;1.37;81.53
41706;BME280;27385;51.096;17.190;2024-01-30T00:15:17;101901.08;;;1.35;81.66
41706;BME280;27385;51.096;17.190;2024-01-30T00:18:08;101899.02;;;1.34;81.69
41706;BME280;27385;51.096;17.190;2024-01-30T00:20:59;101895.77;;;1.33;81.64
41706;BME280;27385;51.096;17.190;2024-01-30T00:23:49;101896.02;;;1.32;81.70
41706;BME280;27385;51.096;17.190;2024-01-30T00:26:40;101895.36;;;1.30;81.75
41706;BME280;27385;51.096;17.190;2024-01-30T00:29:32;101893.06;;;1.29;81.73
41706;BME280;27385;51.096;17.190;2024-01-30T00:32:23;101892.17;;;1.27;81.69
41706;BME280;27385;51.096;17.190;2024-01-30T00:35:14;101899.39;;;1.26;81.70
41706;BME280;27385;51.096;17.190;2024-01-30T00:38:05;101902.36;;;1.23;81.61
41706;BME280;27385;51.096;17.190;2024-01-30T00:40:57;101906.97;;;1.22;81.65
41706;BME280;27385;51.096;17.190;2024-01-30T00:43:48;101910.31;;;1.19;81.51
41706;BME280;27385;51.096;17.190;2024-01-30T00:46:39;101908.38;;;1.14;81.65
41706;BME280;27385;51.096;17.190;2024-01-30T00:49:28;101904.13;;;1.13;81.63
41706;BME280;27385;51.096;17.190;2024-01-30T00:52:19;101910.19;;;1.10;81.68
41706;BME280;27385;51.096;17.190;2024-01-30T00:55:10;101907.58;;;1.07;81.70
41706;BME280;27385;51.096;17.190;2024-01-30T00:58:01;101909.83;;;1.04;81.51
41706;BME280;27385;51.096;17.190;2024-01-30T01:00:52;101915.05;;;1.01;81.56
41706;BME280;27385;51.096;17.190;2024-01-30T01:03:43;101907.77;;;0.97;81.57
41706;BME280;27385;51.096;17.190;2024-01-30T01:06:34;101905.23;;;0.94;81.68
41706;BME280;27385;51.096;17.190;2024-01-30T01:09:25;101901.71;;;0.91;81.78
41706;BME280;27385;51.096;17.190;2024-01-30T01:12:16;101900.11;;;0.89;81.67
41706;BME280;27385;51.096;17.190;2024-01-30T01:15:09;101899.45;;;0.86;81.77
41706;BME280;27385;51.096;17.190;2024-01-30T01:18:00;101896.42;;;0.83;81.62
41706;BME280;27385;51.096;17.190;2024-01-30T01:20:51;101899.36;;;0.78;81.62
41706;BME280;27385;51.096;17.190;2024-01-30T01:23:42;101903.30;;;0.73;81.43
41706;BME280;27385;51.096;17.190;2024-01-30T01:26:33;101902.20;;;0.67;81.52
41706;BME280;27385;51.096;17.190;2024-01-30T01:29:24;101900.27;;;0.65;81.71
41706;BME280;27385;51.096;17.190;2024-01-30T01:32:18;101897.96;;;0.62;81.78
41706;BME280;27385;51.096;17.190;2024-01-30T01:35:09;101894.86;;;0.61;81.68
41706;BME280;27385;51.096;17.190;2024-01-30T01:38:01;101897.83;;;0.58;81.82
41706;BME280;27385;51.096;17.190;2024-01-30T01:40:52;101900.80;;;0.57;81.67
41706;BME280;27385;51.096;17.190;2024-01-30T01:43:43;101896.88;;;0.53;81.73
41706;BME280;27385;51.096;17.190;2024-01-30T01:46:35;101895.05;;;0.51;81.77
41706;BME280;27385;51.096;17.190;2024-01-30T01:49:27;101894.14;;;0.48;81.83
41706;BME280;27385;51.096;17.190;2024-01-30T01:52:18;101893.69;;;0.44;81.90
41706;BME280;27385;51.096;17.190;2024-01-30T01:55:10;101888.38;;;0.40;81.99
41706;BME280;27385;51.096;17.190;2024-01-30T01:58:02;101892.51;;;0.38;81.89
41706;BME280;27385;51.096;17.190;2024-01-30T02:00:53;101892.56;;;0.37;82.03
41706;BME280;27385;51.096;17.190;2024-01-30T02:03:44;101897.61;;;0.34;82.14
41706;BME280;27385;51.096;17.190;2024-01-30T02:06:36;101895.30;;;0.31;82.05
41706;BME280;27385;51.096;17.190;2024-01-30T02:09:28;101894.08;;;0.29;82.22
41706;BME280;27385;51.096;17.190;2024-01-30T02:12:18;101892.79;;;0.27;82.15
41706;BME280;27385;51.096;17.190;2024-01-30T02:15:12;101894.81;;;0.25;82.28
41706;BME280;27385;51.096;17.190;2024-01-30T02:18:04;101892.04;;;0.23;82.15
41706;BME280;27385;51.096;17.190;2024-01-30T02:20:58;101891.05;;;0.21;82.16
41706;BME280;27385;51.096;17.190;2024-01-30T02:23:51;101894.64;;;0.19;82.35
41706;BME280;27385;51.096;17.190;2024-01-30T02:26:42;101889.66;;;0.17;82.34
41706;BME280;27385;51.096;17.190;2024-01-30T02:29:35;101893.69;;;0.14;82.43
41706;BME280;27385;51.096;17.190;2024-01-30T02:32:27;101888.71;;;0.11;82.39
41706;BME280;27385;51.096;17.190;2024-01-30T02:35:18;101882.27;;;0.09;82.54
41706;BME280;27385;51.096;17.190;2024-01-30T02:38:09;101888.19;;;0.08;82.67
41706;BME280;27385;51.096;17.190;2024-01-30T02:41:00;101888.06;;;0.05;82.77
41706;BME280;27385;51.096;17.190;2024-01-30T02:43:52;101889.75;;;0.04;82.90
41706;BME280;27385;51.096;17.190;2024-01-30T02:46:43;101890.95;;;-0.00;82.81
41706;BME280;27385;51.096;17.190;2024-01-30T02:49:33;101889.73;;;-0.03;82.83
41706;BME280;27385;51.096;17.190;2024-01-30T02:52:24;101888.95;;;-0.03;82.86
41706;BME280;27385;51.096;17.190;2024-01-30T02:55:16;101888.45;;;-0.05;83.04
41706;BME280;27385;51.096;17.190;2024-01-30T02:58:07;101889.28;;;-0.06;83.06
41706;BME280;27385;51.096;17.190;2024-01-30T03:00:58;101885.98;;;-0.08;83.15
41706;BME280;27385;51.096;17.190;2024-01-30T03:03:49;101882.66;;;-0.08;83.25
41706;BME280;27385;51.096;17.190;2024-01-30T03:06:46;101881.89;;;-0.12;83.14
41706;BME280;27385;51.096;17.190;2024-01-30T03:09:37;101883.82;;;-0.15;83.11
41706;BME280;27385;51.096;17.190;2024-01-30T03:12:29;101882.37;;;-0.17;83.25
41706;BME280;27385;51.096;17.190;2024-01-30T03:15:20;101884.14;;;-0.18;83.22
41706;BME280;27385;51.096;17.190;2024-01-30T03:18:12;101880.29;;;-0.19;83.32
41706;BME280;27385;51.096;17.190;2024-01-30T03:21:01;101880.71;;;-0.21;83.34
41706;BME280;27385;51.096;17.190;2024-01-30T03:23:53;101881.94;;;-0.24;83.25
41706;BME280;27385;51.096;17.190;2024-01-30T03:26:44;101876.73;;;-0.25;83.43
41706;BME280;27385;51.096;17.190;2024-01-30T03:29:35;101879.54;;;-0.26;83.57
41706;BME280;27385;51.096;17.190;2024-01-30T03:32:26;101883.66;;;-0.28;83.50
41706;BME280;27385;51.096;17.190;2024-01-30T03:35:18;101880.20;;;-0.29;83.74
41706;BME280;27385;51.096;17.190;2024-01-30T03:38:09;101869.67;;;-0.30;83.75
41706;BME280;27385;51.096;17.190;2024-01-30T03:41:00;101875.46;;;-0.31;83.65
41706;BME280;27385;51.096;17.190;2024-01-30T03:43:51;101876.38;;;-0.32;83.79
41706;BME280;27385;51.096;17.190;2024-01-30T03:46:42;101869.34;;;-0.31;83.81
41706;BME280;27385;51.096;17.190;2024-01-30T03:49:33;101863.16;;;-0.30;83.97
41706;BME280;27385;51.096;17.190;2024-01-30T03:52:24;101863.11;;;-0.29;83.90
41706;BME280;27385;51.096;17.190;2024-01-30T03:55:15;101867.30;;;-0.32;83.81
41706;BME280;27385;51.096;17.190;2024-01-30T03:58:06;101873.89;;;-0.32;83.87
41706;BME280;27385;51.096;17.190;2024-01-30T04:00:57;101873.25;;;-0.31;84.02
41706;BME280;27385;51.096;17.190;2024-01-30T04:03:48;101875.54;;;-0.31;84.00
41706;BME280;27385;51.096;17.190;2024-01-30T04:06:39;101870.63;;;-0.33;83.74
41706;BME280;27385;51.096;17.190;2024-01-30T04:09:30;101870.16;;;-0.34;83.87
41706;BME280;27385;51.096;17.190;2024-01-30T04:12:22;101868.80;;;-0.35;83.89
41706;BME280;27385;51.096;17.190;2024-01-30T04:15:14;101863.20;;;-0.37;83.90
41706;BME280;27385;51.096;17.190;2024-01-30T04:18:06;101862.30;;;-0.39;83.74
41706;BME280;27385;51.096;17.190;2024-01-30T04:20:57;101858.60;;;-0.40;83.91
41706;BME280;27385;51.096;17.190;2024-01-30T04:23:48;101860.91;;;-0.41;83.74
41706;BME280;27385;51.096;17.190;2024-01-30T04:26:38;101862.29;;;-0.44;83.83
41706;BME280;27385;51.096;17.190;2024-01-30T04:29:29;101860.69;;;-0.46;83.96
41706;BME280;27385;51.096;17.190;2024-01-30T04:32:21;101866.40;;;-0.47;83.98
41706;BME280;27385;51.096;17.190;2024-01-30T04:35:13;101870.20;;;-0.49;83.79
41706;BME280;27385;51.096;17.190;2024-01-30T04:38:04;101873.90;;;-0.52;83.74
41706;BME280;27385;51.096;17.190;2024-01-30T04:40:55;101871.65;;;-0.55;83.73
41706;BME280;27385;51.096;17.190;2024-01-30T04:43:46;101871.99;;;-0.58;83.84
41706;BME280;27385;51.096;17.190;2024-01-30T04:46:37;101870.02;;;-0.59;83.94
41706;BME280;27385;51.096;17.190;2024-01-30T04:49:28;101870.98;;;-0.61;83.96
41706;BME280;27385;51.096;17.190;2024-01-30T04:52:20;101871.41;;;-0.64;83.93
41706;BME280;27385;51.096;17.190;2024-01-30T04:55:11;101867.11;;;-0.68;84.02
41706;BME280;27385;51.096;17.190;2024-01-30T04:58:02;101866.98;;;-0.70;84.16
41706;BME280;27385;51.096;17.190;2024-01-30T05:00:53;101866.97;;;-0.71;84.18
41706;BME280;27385;51.096;17.190;2024-01-30T05:03:44;101868.03;;;-0.73;84.18
41706;BME280;27385;51.096;17.190;2024-01-30T05:06:35;101870.42;;;-0.75;84.29
41706;BME280;27385;51.096;17.190;2024-01-30T05:09:26;101876.30;;;-0.74;84.32
41706;BME280;27385;51.096;17.190;2024-01-30T05:12:18;101881.73;;;-0.78;84.19
41706;BME280;27385;51.096;17.190;2024-01-30T05:15:10;101879.61;;;-0.82;84.33
41706;BME280;27385;51.096;17.190;2024-01-30T05:18:01;101873.80;;;-0.82;84.34
41706;BME280;27385;51.096;17.190;2024-01-30T05:20:52;101867.15;;;-0.82;84.47
41706;BME280;27385;51.096;17.190;2024-01-30T05:23:44;101864.23;;;-0.84;84.40
41706;BME280;27385;51.096;17.190;2024-01-30T05:26:34;101870.34;;;-0.83;84.59
41706;BME280;27385;51.096;17.190;2024-01-30T05:29:23;101871.98;;;-0.83;84.59
41706;BME280;27385;51.096;17.190;2024-01-30T05:32:14;101872.05;;;-0.84;84.58
41706;BME280;27385;51.096;17.190;2024-01-30T05:35:06;101870.63;;;-0.84;84.68
41706;BME280;27385;51.096;17.190;2024-01-30T05:37:57;101863.79;;;-0.86;84.57
41706;BME280;27385;51.096;17.190;2024-01-30T05:40:48;101867.61;;;-0.91;84.46
41706;BME280;27385;51.096;17.190;2024-01-30T05:43:43;101869.58;;;-0.94;84.65
41706;BME280;27385;51.096;17.190;2024-01-30T05:46:35;101871.13;;;-0.95;84.65
41706;BME280;27385;51.096;17.190;2024-01-30T05:49:26;101870.46;;;-0.96;84.60
41706;BME280;27385;51.096;17.190;2024-01-30T05:52:16;101868.65;;;-0.97;84.70
41706;BME280;27385;51.096;17.190;2024-01-30T05:55:08;101868.19;;;-0.97;84.74
41706;BME280;27385;51.096;17.190;2024-01-30T05:58:01;101872.48;;;-0.97;84.69
41706;BME280;27385;51.096;17.190;2024-01-30T06:00:52;101875.16;;;-0.97;84.78
41706;BME280;27385;51.096;17.190;2024-01-30T06:03:43;101880.76;;;-0.99;84.60
41706;BME280;27385;51.096;17.190;2024-01-30T06:06:34;101879.86;;;-1.04;84.44
41706;BME280;27385;51.096;17.190;2024-01-30T06:09:25;101881.38;;;-1.08;84.37
41706;BME280;27385;51.096;17.190;2024-01-30T06:12:15;101886.67;;;-1.08;84.62
41706;BME280;27385;51.096;17.190;2024-01-30T06:15:08;101881.05;;;-1.08;84.54
41706;BME280;27385;51.096;17.190;2024-01-30T06:18:00;101884.19;;;-1.11;84.45
41706;BME280;27385;51.096;17.190;2024-01-30T06:20:51;101881.67;;;-1.15;84.54
41706;BME280;27385;51.096;17.190;2024-01-30T06:23:42;101887.04;;;-1.14;84.62
41706;BME280;27385;51.096;17.190;2024-01-30T06:26:33;101882.42;;;-1.17;84.47
41706;BME280;27385;51.096;17.190;2024-01-30T06:29:25;101881.87;;;-1.21;84.43
41706;BME280;27385;51.096;17.190;2024-01-30T06:32:16;101881.65;;;-1.24;84.47
41706;BME280;27385;51.096;17.190;2024-01-30T06:35:08;101879.04;;;-1.25;84.76
41706;BME280;27385;51.096;17.190;2024-01-30T06:38:00;101882.86;;;-1.25;84.73
41706;BME280;27385;51.096;17.190;2024-01-30T06:40:51;101884.75;;;-1.25;84.84
41706;BME280;27385;51.096;17.190;2024-01-30T06:43:42;101886.65;;;-1.24;84.77
41706;BME280;27385;51.096;17.190;2024-01-30T06:46:34;101890.67;;;-1.23;84.98
41706;BME280;27385;51.096;17.190;2024-01-30T06:49:25;101883.35;;;-1.21;84.91
41706;BME280;27385;51.096;17.190;2024-01-30T06:52:16;101886.58;;;-1.21;85.04
41706;BME280;27385;51.096;17.190;2024-01-30T06:55:09;101884.23;;;-1.20;84.98
41706;BME280;27385;51.096;17.190;2024-01-30T06:58:00;101885.05;;;-1.18;85.05
41706;BME280;27385;51.096;17.190;2024-01-30T07:00:51;101882.27;;;-1.17;85.16
41706;BME280;27385;51.096;17.190;2024-01-30T07:03:42;101883.39;;;-1.15;85.21
41706;BME280;27385;51.096;17.190;2024-01-30T07:06:33;101886.64;;;-1.13;85.22
41706;BME280;27385;51.096;17.190;2024-01-30T07:09:24;101891.67;;;-1.13;85.33
41706;BME280;27385;51.096;17.190;2024-01-30T07:12:15;101891.52;;;-1.12;85.38
41706;BME280;27385;51.096;17.190;2024-01-30T07:15:07;101893.41;;;-1.12;85.53
41706;BME280;27385;51.096;17.190;2024-01-30T07:17:58;101889.17;;;-1.09;85.56
41706;BME280;27385;51.096;17.190;2024-01-30T07:20:49;101889.71;;;-1.05;85.61
41706;BME280;27385;51.096;17.190;2024-01-30T07:23:40;101890.61;;;-1.03;85.59
41706;BME280;27385;51.096;17.190;2024-01-30T07:26:31;101887.77;;;-1.02;85.79
41706;BME280;27385;51.096;17.190;2024-01-30T07:29:22;101888.50;;;-1.00;85.89
41706;BME280;27385;51.096;17.190;2024-01-30T07:32:14;101883.05;;;-0.98;86.08
41706;BME280;27385;51.096;17.190;2024-01-30T07:35:06;101879.52;;;-0.95;86.31
41706;BME280;27385;51.096;17.190;2024-01-30T07:37:57;101882.36;;;-0.90;86.61
41706;BME280;27385;51.096;17.190;2024-01-30T07:40:48;101885.27;;;-0.81;87.03
41706;BME280;27385;51.096;17.190;2024-01-30T07:43:40;101886.06;;;-0.72;87.22
41706;BME280;27385;51.096;17.190;2024-01-30T07:46:31;101885.70;;;-0.62;87.39
41706;BME280;27385;51.096;17.190;2024-01-30T07:49:23;101890.98;;;-0.49;87.72
41706;BME280;27385;51.096;17.190;2024-01-30T07:52:14;101893.31;;;-0.36;87.57
41706;BME280;27385;51.096;17.190;2024-01-30T07:55:06;101892.62;;;-0.22;87.74
41706;BME280;27385;51.096;17.190;2024-01-30T07:57:58;101891.64;;;-0.11;87.53
41706;BME280;27385;51.096;17.190;2024-01-30T08:00:50;101889.11;;;0.01;87.72
41706;BME280;27385;51.096;17.190;2024-01-30T08:03:42;101887.23;;;0.18;87.61
41706;BME280;27385;51.096;17.190;2024-01-30T08:06:34;101887.80;;;0.33;87.52
41706;BME280;27385;51.096;17.190;2024-01-30T08:09:25;101885.42;;;0.47;87.23
41706;BME280;27385;51.096;17.190;2024-01-30T08:12:16;101882.97;;;0.63;87.21
41706;BME280;27385;51.096;17.190;2024-01-30T08:15:09;101880.34;;;0.77;87.04
41706;BME280;27385;51.096;17.190;2024-01-30T08:18:00;101872.48;;;0.90;86.91
41706;BME280;27385;51.096;17.190;2024-01-30T08:20:53;101876.88;;;1.02;86.81
41706;BME280;27385;51.096;17.190;2024-01-30T08:23:44;101876.60;;;1.18;86.69
41706;BME280;27385;51.096;17.190;2024-01-30T08:26:35;101877.02;;;1.35;86.37
41706;BME280;27385;51.096;17.190;2024-01-30T08:29:27;101875.88;;;1.53;86.18
41706;BME280;27385;51.096;17.190;2024-01-30T08:32:18;101873.39;;;1.73;86.03
41706;BME280;27385;51.096;17.190;2024-01-30T08:35:09;101871.64;;;1.89;85.71
41706;BME280;27385;51.096;17.190;2024-01-30T08:38:03;101869.73;;;2.04;85.49
41706;BME280;27385;51.096;17.190;2024-01-30T08:40:55;101870.79;;;2.19;85.14
41706;BME280;27385;51.096;17.190;2024-01-30T08:43:46;101866.77;;;2.31;84.84
41706;BME280;27385;51.096;17.190;2024-01-30T08:46:37;101867.48;;;2.43;84.76
41706;BME280;27385;51.096;17.190;2024-01-30T08:49:28;101868.44;;;2.59;84.27
41706;BME280;27385;51.096;17.190;2024-01-30T08:52:19;101865.45;;;2.75;83.96
41706;BME280;27385;51.096;17.190;2024-01-30T08:55:11;101869.05;;;2.88;83.78
41706;BME280;27385;51.096;17.190;2024-01-30T08:58:02;101864.08;;;3.04;83.42
41706;BME280;27385;51.096;17.190;2024-01-30T09:00:54;101864.53;;;3.20;83.09
41706;BME280;27385;51.096;17.190;2024-01-30T09:03:43;101865.66;;;3.32;82.59
41706;BME280;27385;51.096;17.190;2024-01-30T09:06:36;101864.77;;;3.50;81.87
41706;BME280;27385;51.096;17.190;2024-01-30T09:09:28;101867.78;;;3.65;81.73
41706;BME280;27385;51.096;17.190;2024-01-30T09:12:19;101865.11;;;3.81;81.36
41706;BME280;27385;51.096;17.190;2024-01-30T09:15:09;101866.39;;;3.93;81.02
41706;BME280;27385;51.096;17.190;2024-01-30T09:18:00;101865.91;;;4.04;80.52
41706;BME280;27385;51.096;17.190;2024-01-30T09:20:50;101866.69;;;4.14;80.57
41706;BME280;27385;51.096;17.190;2024-01-30T09:23:41;101868.75;;;4.24;80.41
41706;BME280;27385;51.096;17.190;2024-01-30T09:26:32;101863.52;;;4.36;80.05
41706;BME280;27385;51.096;17.190;2024-01-30T09:29:23;101859.62;;;4.48;79.88
41706;BME280;27385;51.096;17.190;2024-01-30T09:32:13;101862.91;;;4.57;79.60
41706;BME280;27385;51.096;17.190;2024-01-30T09:35:04;101864.47;;;4.65;79.44
41706;BME280;27385;51.096;17.190;2024-01-30T09:37:55;101855.11;;;4.77;78.84
41706;BME280;27385;51.096;17.190;2024-01-30T09:40:54;101856.26;;;4.87;77.95
41706;BME280;27385;51.096;17.190;2024-01-30T09:43:48;101856.21;;;5.00;77.95
41706;BME280;27385;51.096;17.190;2024-01-30T09:46:41;101856.64;;;5.09;77.38
41706;BME280;27385;51.096;17.190;2024-01-30T09:49:33;101850.60;;;5.15;77.30
41706;BME280;27385;51.096;17.190;2024-01-30T09:52:24;101850.23;;;5.26;76.74
41706;BME280;27385;51.096;17.190;2024-01-30T09:55:15;101848.84;;;5.34;76.38
41706;BME280;27385;51.096;17.190;2024-01-30T09:58:07;101847.61;;;5.41;75.88
41706;BME280;27385;51.096;17.190;2024-01-30T10:00:57;101843.42;;;5.52;75.68
41706;BME280;27385;51.096;17.190;2024-01-30T10:03:50;101839.33;;;5.61;75.46
41706;BME280;27385;51.096;17.190;2024-01-30T10:06:41;101839.75;;;5.66;75.04
41706;BME280;27385;51.096;17.190;2024-01-30T10:09:34;101833.22;;;5.73;75.42
41706;BME280;27385;51.096;17.190;2024-01-30T10:12:29;101824.77;;;5.80;74.93
41706;BME280;27385;51.096;17.190;2024-01-30T10:15:20;101821.21;;;5.91;74.40
41706;BME280;27385;51.096;17.190;2024-01-30T10:18:12;101820.80;;;6.03;73.66
41706;BME280;27385;51.096;17.190;2024-01-30T10:21:03;101817.77;;;6.13;72.74
41706;BME280;27385;51.096;17.190;2024-01-30T10:23:52;101815.03;;;6.25;72.62
41706;BME280;27385;51.096;17.190;2024-01-30T10:26:44;101813.91;;;6.34;72.15
41706;BME280;27385;51.096;17.190;2024-01-30T10:29:35;101812.18;;;6.41;72.20
41706;BME280;27385;51.096;17.190;2024-01-30T10:32:28;101814.23;;;6.49;72.01
41706;BME280;27385;51.096;17.190;2024-01-30T10:35:19;101811.13;;;6.56;71.90
41706;BME280;27385;51.096;17.190;2024-01-30T10:38:11;101811.23;;;6.61;71.43
41706;BME280;27385;51.096;17.190;2024-01-30T10:41:04;101809.42;;;6.68;70.73
41706;BME280;27385;51.096;17.190;2024-01-30T10:44:01;101801.12;;;6.79;70.62
41706;BME280;27385;51.096;17.190;2024-01-30T10:47:00;101795.24;;;6.85;71.06
41706;BME280;27385;51.096;17.190;2024-01-30T10:49:52;101793.04;;;6.90;70.21
41706;BME280;27385;51.096;17.190;2024-01-30T10:52:44;101793.14;;;6.95;69.59
41706;BME280;27385;51.096;17.190;2024-01-30T10:55:36;101794.70;;;7.02;68.70
41706;BME280;27385;51.096;17.190;2024-01-30T10:58:28;101791.14;;;7.13;68.98
41706;BME280;27385;51.096;17.190;2024-01-30T11:01:19;101787.96;;;7.19;68.56
41706;BME280;27385;51.096;17.190;2024-01-30T11:04:12;101786.01;;;7.27;68.40
41706;BME280;27385;51.096;17.190;2024-01-30T11:07:03;101781.41;;;7.31;68.21
41706;BME280;27385;51.096;17.190;2024-01-30T11:10:05;101778.18;;;7.42;67.45
41706;BME280;27385;51.096;17.190;2024-01-30T11:12:58;101773.88;;;7.49;66.94
41706;BME280;27385;51.096;17.190;2024-01-30T11:15:50;101772.72;;;7.50;67.03
41706;BME280;27385;51.096;17.190;2024-01-30T11:18:41;101770.10;;;7.50;66.54
41706;BME280;27385;51.096;17.190;2024-01-30T11:21:32;101764.92;;;7.51;66.23
41706;BME280;27385;51.096;17.190;2024-01-30T11:24:23;101764.56;;;7.54;66.52
41706;BME280;27385;51.096;17.190;2024-01-30T11:27:14;101763.38;;;7.59;66.10
41706;BME280;27385;51.096;17.190;2024-01-30T11:30:07;101757.90;;;7.68;65.85
41706;BME280;27385;51.096;17.190;2024-01-30T11:33:08;101756.58;;;7.76;65.60
41706;BME280;27385;51.096;17.190;2024-01-30T11:36:01;101754.73;;;7.85;65.16
41706;BME280;27385;51.096;17.190;2024-01-30T11:38:52;101749.84;;;7.93;65.10
41706;BME280;27385;51.096;17.190;2024-01-30T11:41:42;101744.00;;;8.00;64.98
41706;BME280;27385;51.096;17.190;2024-01-30T11:44:34;101741.38;;;8.08;63.92
41706;BME280;27385;51.096;17.190;2024-01-30T11:47:25;101739.67;;;8.14;63.83
41706;BME280;27385;51.096;17.190;2024-01-30T11:50:16;101729.93;;;8.20;64.09
41706;BME280;27385;51.096;17.190;2024-01-30T11:53:08;101725.23;;;8.27;63.94
41706;BME280;27385;51.096;17.190;2024-01-30T11:55:59;101728.87;;;8.35;62.85
41706;BME280;27385;51.096;17.190;2024-01-30T11:58:50;101724.67;;;8.42;63.51
41706;BME280;27385;51.096;17.190;2024-01-30T12:01:42;101718.25;;;8.45;63.11
41706;BME280;27385;51.096;17.190;2024-01-30T12:04:33;101713.00;;;8.49;62.88
41706;BME280;27385;51.096;17.190;2024-01-30T12:07:24;101713.02;;;8.56;62.86
41706;BME280;27385;51.096;17.190;2024-01-30T12:10:15;101709.01;;;8.61;62.53
41706;BME280;27385;51.096;17.190;2024-01-30T12:13:07;101703.05;;;8.68;62.55
41706;BME280;27385;51.096;17.190;2024-01-30T12:15:58;101702.83;;;8.75;61.77
41706;BME280;27385;51.096;17.190;2024-01-30T12:18:49;101696.95;;;8.77;61.94
41706;BME280;27385;51.096;17.190;2024-01-30T12:21:40;101696.88;;;8.81;61.64
41706;BME280;27385;51.096;17.190;2024-01-30T12:24:31;101697.42;;;8.85;61.42
41706;BME280;27385;51.096;17.190;2024-01-30T12:27:22;101693.30;;;8.88;60.63
41706;BME280;27385;51.096;17.190;2024-01-30T12:30:15;101688.24;;;8.93;60.67
41706;BME280;27385;51.096;17.190;2024-01-30T12:33:06;101684.41;;;8.98;60.35
41706;BME280;27385;51.096;17.190;2024-01-30T12:36:02;101684.95;;;9.02;60.36
41706;BME280;27385;51.096;17.190;2024-01-30T12:38:56;101688.09;;;9.04;60.24
41706;BME280;27385;51.096;17.190;2024-01-30T12:41:48;101681.88;;;9.07;60.13
41706;BME280;27385;51.096;17.190;2024-01-30T12:44:38;101677.91;;;9.10;60.04
41706;BME280;27385;51.096;17.190;2024-01-30T12:47:30;101671.11;;;9.11;59.75
41706;BME280;27385;51.096;17.190;2024-01-30T12:50:21;101671.70;;;9.09;59.82
41706;BME280;27385;51.096;17.190;2024-01-30T12:53:11;101671.57;;;9.09;59.54
41706;BME280;27385;51.096;17.190;2024-01-30T12:56:03;101670.65;;;9.07;59.26
41706;BME280;27385;51.096;17.190;2024-01-30T12:58:54;101670.53;;;9.09;58.74
41706;BME280;27385;51.096;17.190;2024-01-30T13:01:45;101662.04;;;9.08;58.23
41706;BME280;27385;51.096;17.190;2024-01-30T13:04:36;101666.60;;;9.03;58.54
41706;BME280;27385;51.096;17.190;2024-01-30T13:07:27;101670.31;;;8.98;58.20
41706;BME280;27385;51.096;17.190;2024-01-30T13:10:18;101669.67;;;8.91;58.44
41706;BME280;27385;51.096;17.190;2024-01-30T13:13:09;101667.31;;;8.86;58.33
41706;BME280;27385;51.096;17.190;2024-01-30T13:16:03;101664.27;;;8.81;58.03
41706;BME280;27385;51.096;17.190;2024-01-30T13:18:55;101660.34;;;8.75;57.84
41706;BME280;27385;51.096;17.190;2024-01-30T13:21:46;101660.42;;;8.71;57.98
41706;BME280;27385;51.096;17.190;2024-01-30T13:24:37;101654.88;;;8.67;57.68
41706;BME280;27385;51.096;17.190;2024-01-30T13:27:26;101654.52;;;8.65;57.74
41706;BME280;27385;51.096;17.190;2024-01-30T13:30:17;101651.19;;;8.61;57.57
41706;BME280;27385;51.096;17.190;2024-01-30T13:33:07;101648.80;;;8.58;57.42
41706;BME280;27385;51.096;17.190;2024-01-30T13:35:58;101646.67;;;8.53;57.55
41706;BME280;27385;51.096;17.190;2024-01-30T13:38:49;101646.95;;;8.48;57.59
41706;BME280;27385;51.096;17.190;2024-01-30T13:41:41;101644.89;;;8.43;57.84
41706;BME280;27385;51.096;17.190;2024-01-30T13:44:32;101648.10;;;8.39;57.80
41706;BME280;27385;51.096;17.190;2024-01-30T13:47:24;101645.02;;;8.34;58.02
41706;BME280;27385;51.096;17.190;2024-01-30T13:50:15;101648.82;;;8.28;57.77
41706;BME280;27385;51.096;17.190;2024-01-30T13:53:06;101646.33;;;8.24;57.61
41706;BME280;27385;51.096;17.190;2024-01-30T13:55:57;101647.45;;;8.19;57.73
41706;BME280;27385;51.096;17.190;2024-01-30T13:58:49;101642.76;;;8.16;57.91
41706;BME280;27385;51.096;17.190;2024-01-30T14:01:40;101637.99;;;8.11;57.88
41706;BME280;27385;51.096;17.190;2024-01-30T14:04:31;101636.48;;;8.08;58.08
41706;BME280;27385;51.096;17.190;2024-01-30T14:07:22;101634.30;;;8.05;58.23
41706;BME280;27385;51.096;17.190;2024-01-30T14:10:16;101635.16;;;8.02;57.95
41706;BME280;27385;51.096;17.190;2024-01-30T14:13:07;101633.19;;;7.98;58.08
41706;BME280;27385;51.096;17.190;2024-01-30T14:15:58;101635.23;;;7.94;58.24
41706;BME280;27385;51.096;17.190;2024-01-30T14:18:49;101634.70;;;7.90;58.20
41706;BME280;27385;51.096;17.190;2024-01-30T14:21:41;101633.98;;;7.86;58.22
41706;BME280;27385;51.096;17.190;2024-01-30T14:24:32;101631.66;;;7.82;58.28
41706;BME280;27385;51.096;17.190;2024-01-30T14:27:23;101627.63;;;7.78;58.44
41706;BME280;27385;51.096;17.190;2024-01-30T14:30:14;101629.30;;;7.74;58.53
41706;BME280;27385;51.096;17.190;2024-01-30T14:33:06;101631.15;;;7.68;58.53
41706;BME280;27385;51.096;17.190;2024-01-30T14:35:58;101633.46;;;7.64;58.63
41706;BME280;27385;51.096;17.190;2024-01-30T14:38:49;101631.88;;;7.59;58.61
41706;BME280;27385;51.096;17.190;2024-01-30T14:41:41;101634.67;;;7.54;58.62
41706;BME280;27385;51.096;17.190;2024-01-30T14:44:32;101636.90;;;7.50;58.76
41706;BME280;27385;51.096;17.190;2024-01-30T14:47:24;101635.86;;;7.46;58.72
41706;BME280;27385;51.096;17.190;2024-01-30T14:50:15;101637.84;;;7.41;58.91